createdAt,value
2022-08-01T00:00:19.232Z,26.54
2022-08-01T00:02:45.949Z,26.45
2022-08-01T00:05:13.039Z,26.55
2022-08-01T00:07:39.879Z,26.55
2022-08-01T00:10:09.622Z,26.55
2022-08-01T00:12:37.691Z,26.53
2022-08-01T00:15:06.502Z,26.23
2022-08-01T00:17:33.647Z,26.30
2022-08-01T00:20:00.707Z,26.27
2022-08-01T00:22:27.560Z,26.24
2022-08-01T00:24:54.273Z,26.32
2022-08-01T00:27:21.786Z,26.19
2022-08-01T00:30:11.662Z,26.07
2022-08-01T00:32:35.256Z,26.24
2022-08-01T00:35:02.000Z,26.04
2022-08-01T00:37:30.097Z,25.96
2022-08-01T00:39:56.724Z,26.10
2022-08-01T00:42:23.443Z,26.21
2022-08-01T00:44:50.082Z,26.12
2022-08-01T00:47:16.943Z,26.02
2022-08-01T00:49:43.977Z,25.99
2022-08-01T00:52:11.477Z,25.90
2022-08-01T00:54:38.406Z,25.86
2022-08-01T00:57:09.866Z,25.90
2022-08-01T00:59:37.427Z,25.90
2022-08-01T01:02:04.556Z,25.90
2022-08-01T01:04:41.227Z,25.93
2022-08-01T01:07:12.154Z,25.97
2022-08-01T01:09:58.874Z,25.94
2022-08-01T01:12:35.932Z,26.07
2022-08-01T01:15:14.359Z,25.79
2022-08-01T01:18:07.841Z,25.98
2022-08-01T01:20:39.946Z,25.68
2022-08-01T01:23:45.116Z,25.64
2022-08-01T01:26:32.681Z,25.64
2022-08-01T01:29:29.350Z,25.67
2022-08-01T01:32:10.685Z,25.65
2022-08-01T01:34:40.903Z,25.83
2022-08-01T01:37:11.895Z,25.70
2022-08-01T01:39:41.502Z,25.64
2022-08-01T01:42:12.247Z,25.63
2022-08-01T01:44:42.500Z,25.49
2022-08-01T01:47:10.017Z,25.65
2022-08-01T01:49:37.778Z,25.55
2022-08-01T01:52:05.437Z,25.56
2022-08-01T01:54:37.228Z,25.59
2022-08-01T01:57:06.799Z,25.83
2022-08-01T01:59:37.136Z,25.69
2022-08-01T02:02:06.979Z,25.49
2022-08-01T02:04:38.727Z,25.51
2022-08-01T02:07:08.236Z,25.57
2022-08-01T02:09:36.663Z,25.47
2022-08-01T02:12:07.808Z,25.53
2022-08-01T02:14:56.957Z,25.48
2022-08-01T02:17:25.633Z,25.29
2022-08-01T02:19:54.545Z,25.17
2022-08-01T02:22:28.609Z,25.46
2022-08-01T02:25:25.185Z,25.31
2022-08-01T02:28:08.098Z,25.30
2022-08-01T02:30:37.827Z,25.29
2022-08-01T02:33:15.808Z,25.15
2022-08-01T02:36:30.244Z,25.09
2022-08-01T02:38:37.213Z,25.05
2022-08-01T02:41:19.520Z,25.49
2022-08-01T02:43:53.502Z,25.36
2022-08-01T02:46:30.679Z,25.01
2022-08-01T02:49:01.628Z,24.98
2022-08-01T02:51:31.003Z,25.09
2022-08-01T02:53:59.895Z,25.10
2022-08-01T02:56:35.584Z,25.03
2022-08-01T02:59:07.004Z,24.87
2022-08-01T03:01:37.248Z,24.81
2022-08-01T03:04:06.189Z,24.96
2022-08-01T03:06:34.672Z,25.06
2022-08-01T03:09:03.765Z,25.07
2022-08-01T03:11:31.709Z,24.87
2022-08-01T03:14:02.529Z,24.73
2022-08-01T03:16:32.378Z,24.76
2022-08-01T03:19:02.255Z,24.83
2022-08-01T03:21:30.280Z,24.83
2022-08-01T03:24:00.525Z,24.88
2022-08-01T03:26:29.668Z,24.96
2022-08-01T03:28:59.973Z,24.98
2022-08-01T03:31:28.762Z,24.97
2022-08-01T03:33:55.616Z,24.86
2022-08-01T03:36:27.593Z,24.82
2022-08-01T03:38:58.992Z,24.86
2022-08-01T03:41:41.797Z,24.84
2022-08-01T03:44:14.352Z,24.91
2022-08-01T03:46:57.343Z,24.97
2022-08-01T03:49:30.615Z,25.08
2022-08-01T03:51:59.642Z,25.03
2022-08-01T03:54:35.727Z,25.14
2022-08-01T03:57:03.358Z,24.96
2022-08-01T03:59:31.263Z,24.87
2022-08-01T04:01:59.382Z,24.88
2022-08-01T04:04:26.884Z,24.87
2022-08-01T04:06:54.952Z,24.78
2022-08-01T04:09:25.498Z,24.59
2022-08-01T04:11:52.227Z,24.62
2022-08-01T04:14:18.974Z,24.63
2022-08-01T04:16:45.706Z,24.55
2022-08-01T04:19:13.227Z,24.49
2022-08-01T04:21:39.971Z,24.47
2022-08-01T04:24:17.562Z,24.58
2022-08-01T04:26:46.394Z,24.67
2022-08-01T04:29:15.176Z,24.57
2022-08-01T04:31:46.355Z,24.55
2022-08-01T04:34:16.706Z,24.51
2022-08-01T04:36:45.200Z,24.54
2022-08-01T04:39:13.057Z,24.56
2022-08-01T04:41:40.820Z,24.48
2022-08-01T04:44:07.801Z,24.46
2022-08-01T04:46:37.775Z,24.35
2022-08-01T04:49:07.995Z,24.46
2022-08-01T04:51:35.338Z,24.48
2022-08-01T04:54:02.220Z,24.47
2022-08-01T04:56:28.927Z,24.51
2022-08-01T04:59:19.624Z,24.51
2022-08-01T05:01:51.561Z,24.43
2022-08-01T05:04:18.493Z,24.41
2022-08-01T05:06:45.136Z,24.36
2022-08-01T05:09:11.811Z,24.52
2022-08-01T05:11:38.516Z,24.35
2022-08-01T05:14:05.230Z,24.41
2022-08-01T05:16:31.904Z,24.43
2022-08-01T05:18:58.564Z,24.46
2022-08-01T05:21:25.275Z,24.37
2022-08-01T05:23:51.949Z,24.33
2022-08-01T05:26:18.577Z,24.37
2022-08-01T05:28:45.243Z,24.38
2022-08-01T05:31:12.155Z,24.45
2022-08-01T05:33:38.855Z,24.39
2022-08-01T05:36:05.851Z,24.32
2022-08-01T05:38:32.623Z,24.46
2022-08-01T05:40:59.418Z,24.62
2022-08-01T05:43:28.994Z,24.51
2022-08-01T05:45:57.594Z,24.39
2022-08-01T05:48:35.940Z,24.35
2022-08-01T05:51:03.535Z,24.27
2022-08-01T05:53:30.415Z,24.36
2022-08-01T05:56:00.169Z,24.21
2022-08-01T05:58:26.865Z,24.29
2022-08-01T06:00:53.603Z,24.48
2022-08-01T06:03:20.359Z,24.66
2022-08-01T06:05:47.130Z,24.66
2022-08-01T06:08:13.756Z,24.78
2022-08-01T06:10:40.471Z,24.88
2022-08-01T06:13:07.564Z,24.90
2022-08-01T06:15:34.633Z,25.03
2022-08-01T06:18:01.732Z,25.14
2022-08-01T06:20:28.731Z,25.14
2022-08-01T06:22:55.713Z,25.14
2022-08-01T06:25:23.493Z,25.25
2022-08-01T06:27:50.694Z,25.30
2022-08-01T06:30:17.534Z,25.55
2022-08-01T06:32:44.260Z,25.57
2022-08-01T06:35:10.977Z,25.85
2022-08-01T06:37:37.941Z,26.03
2022-08-01T06:40:14.739Z,26.13
2022-08-01T06:42:45.083Z,26.15
2022-08-01T06:45:13.217Z,26.13
2022-08-01T06:47:41.207Z,26.33
2022-08-01T06:50:09.847Z,26.23
2022-08-01T06:52:38.711Z,25.96
2022-08-01T06:55:05.965Z,26.03
2022-08-01T06:57:33.718Z,26.18
2022-08-01T07:00:07.439Z,26.07
2022-08-01T07:02:34.327Z,25.98
2022-08-01T07:05:01.383Z,26.03
2022-08-01T07:07:32.062Z,26.07
2022-08-01T07:09:58.870Z,25.93
2022-08-01T07:12:25.522Z,25.68
2022-08-01T07:14:52.255Z,25.69
2022-08-01T07:17:21.446Z,25.54
2022-08-01T07:19:48.809Z,25.62
2022-08-01T07:22:23.139Z,26.02
2022-08-01T07:24:54.504Z,25.99
2022-08-01T07:27:25.813Z,26.09
2022-08-01T07:29:55.851Z,26.09
2022-08-01T07:32:22.968Z,25.98
2022-08-01T07:34:49.763Z,26.01
2022-08-01T07:37:16.433Z,25.82
2022-08-01T07:39:44.868Z,25.97
2022-08-01T07:42:11.734Z,25.92
2022-08-01T07:44:45.597Z,25.95
2022-08-01T07:47:12.336Z,25.81
2022-08-01T07:49:41.046Z,25.59
2022-08-01T07:52:08.932Z,25.37
2022-08-01T07:54:35.706Z,25.40
2022-08-01T07:57:03.948Z,25.48
2022-08-01T07:59:31.036Z,25.31
2022-08-01T08:01:57.973Z,25.19
2022-08-01T08:04:24.786Z,25.51
2022-08-01T08:06:51.956Z,25.34
2022-08-01T08:09:18.753Z,25.55
2022-08-01T08:11:48.064Z,25.45
2022-08-01T08:14:16.601Z,25.19
2022-08-01T08:16:44.205Z,25.33
2022-08-01T08:19:11.278Z,25.43
2022-08-01T08:21:38.732Z,25.50
2022-08-01T08:24:26.814Z,25.63
2022-08-01T08:27:01.867Z,25.74
2022-08-01T08:29:30.804Z,25.95
2022-08-01T08:31:57.781Z,25.86
2022-08-01T08:34:25.014Z,25.77
2022-08-01T08:36:52.705Z,26.09
2022-08-01T08:39:20.394Z,26.24
2022-08-01T08:41:49.482Z,26.23
2022-08-01T08:44:18.407Z,26.13
2022-08-01T08:46:47.582Z,25.91
2022-08-01T08:49:18.845Z,25.91
2022-08-01T08:51:49.324Z,25.79
2022-08-01T08:54:16.328Z,25.81
2022-08-01T08:56:45.023Z,26.01
2022-08-01T08:59:14.344Z,26.02
2022-08-01T09:01:42.527Z,25.87
2022-08-01T09:04:10.487Z,25.64
2022-08-01T09:06:37.250Z,25.53
2022-08-01T09:09:05.036Z,25.74
2022-08-01T09:11:32.033Z,25.90
2022-08-01T09:14:14.715Z,25.94
2022-08-01T09:16:48.906Z,26.11
2022-08-01T09:19:39.666Z,26.17
2022-08-01T09:22:09.937Z,26.45
2022-08-01T09:24:37.683Z,26.55
2022-08-01T09:27:21.637Z,26.82
2022-08-01T09:30:00.430Z,26.75
2022-08-01T09:32:35.983Z,26.79
2022-08-01T09:35:30.707Z,27.04
2022-08-01T09:38:18.372Z,27.31
2022-08-01T09:40:46.980Z,27.46
2022-08-01T09:43:17.628Z,27.16
2022-08-01T09:45:45.817Z,27.04
2022-08-01T09:48:19.300Z,27.36
2022-08-01T09:50:48.053Z,27.28
2022-08-01T09:53:30.338Z,27.21
2022-08-01T09:56:12.885Z,27.02
2022-08-01T09:59:02.009Z,26.73
2022-08-01T10:01:41.989Z,26.91
2022-08-01T10:04:12.479Z,27.20
2022-08-01T10:06:41.659Z,27.11
2022-08-01T10:09:08.853Z,27.49
2022-08-01T10:11:39.972Z,27.23
2022-08-01T10:14:08.322Z,27.05
2022-08-01T10:16:38.376Z,26.99
2022-08-01T10:19:14.613Z,26.82
2022-08-01T10:21:58.449Z,26.73
2022-08-01T10:24:29.158Z,26.86
2022-08-01T10:27:08.068Z,27.00
2022-08-01T10:30:19.405Z,27.02
2022-08-01T10:32:53.498Z,27.41
2022-08-01T10:35:45.548Z,27.69
2022-08-01T10:38:13.447Z,27.77
2022-08-01T10:40:42.998Z,27.80
2022-08-01T10:43:15.241Z,27.84
2022-08-01T10:45:49.995Z,27.73
2022-08-01T10:48:29.742Z,27.75
2022-08-01T10:51:00.871Z,27.71
2022-08-01T10:53:31.172Z,27.60
2022-08-01T10:56:02.770Z,27.78
2022-08-01T10:58:42.503Z,27.83
2022-08-01T11:01:16.004Z,27.72
2022-08-01T11:04:02.228Z,27.57
2022-08-01T11:06:35.113Z,27.90
2022-08-01T11:09:12.437Z,27.82
2022-08-01T11:12:23.259Z,27.78
2022-08-01T11:15:02.881Z,27.71
2022-08-01T11:17:37.245Z,27.89
2022-08-01T11:20:06.103Z,27.72
2022-08-01T11:23:00.431Z,27.71
2022-08-01T11:26:03.076Z,27.55
2022-08-01T11:28:36.546Z,27.40
2022-08-01T11:31:10.995Z,27.23
2022-08-01T11:33:48.654Z,27.33
2022-08-01T11:36:32.206Z,27.36
2022-08-01T11:39:13.673Z,27.85
2022-08-01T11:41:42.192Z,28.01
2022-08-01T11:44:30.512Z,27.98
2022-08-01T11:47:00.293Z,27.99
2022-08-01T11:49:41.638Z,28.09
2022-08-01T11:52:11.121Z,28.11
2022-08-01T11:55:05.488Z,28.00
2022-08-01T11:57:39.013Z,27.94
2022-08-01T12:00:16.704Z,28.00
2022-08-01T12:02:46.143Z,28.21
2022-08-01T12:05:17.334Z,28.20
2022-08-01T12:07:47.151Z,27.98
2022-08-01T12:10:21.877Z,27.95
2022-08-01T12:12:55.037Z,28.07
2022-08-01T12:15:25.051Z,28.15
2022-08-01T12:17:58.885Z,28.19
2022-08-01T12:20:31.183Z,28.25
2022-08-01T12:23:01.970Z,28.25
2022-08-01T12:25:29.679Z,28.19
2022-08-01T12:28:01.384Z,28.20
2022-08-01T12:30:29.420Z,28.37
2022-08-01T12:32:56.230Z,28.28
2022-08-01T12:35:26.460Z,28.13
2022-08-01T12:38:01.076Z,28.00
2022-08-01T12:40:33.452Z,27.99
2022-08-01T12:43:03.671Z,28.15
2022-08-01T12:45:38.530Z,28.26
2022-08-01T12:48:09.914Z,28.29
2022-08-01T12:50:39.275Z,28.50
2022-08-01T12:53:07.283Z,28.47
2022-08-01T12:55:34.871Z,28.42
2022-08-01T12:58:15.410Z,28.47
2022-08-01T13:00:46.087Z,28.47
2022-08-01T13:03:18.053Z,28.56
2022-08-01T13:05:55.723Z,28.44
2022-08-01T13:08:38.826Z,28.62
2022-08-01T13:11:09.658Z,28.92
2022-08-01T13:13:43.427Z,28.92
2022-08-01T13:16:15.592Z,29.03
2022-08-01T13:18:57.571Z,29.08
2022-08-01T13:21:28.853Z,29.04
2022-08-01T13:24:04.284Z,28.93
2022-08-01T13:26:50.503Z,28.67
2022-08-01T13:29:21.701Z,28.86
2022-08-01T13:31:49.044Z,28.91
2022-08-01T13:34:16.586Z,28.82
2022-08-01T13:36:49.160Z,29.13
2022-08-01T13:39:35.687Z,29.26
2022-08-01T13:42:02.552Z,29.44
2022-08-01T13:44:29.838Z,29.53
2022-08-01T13:46:56.971Z,29.57
2022-08-01T13:49:24.387Z,29.49
2022-08-01T13:51:51.633Z,29.29
2022-08-01T13:54:19.486Z,29.16
2022-08-01T13:56:46.692Z,29.49
2022-08-01T13:59:13.991Z,29.55
2022-08-01T14:01:40.857Z,29.39
2022-08-01T14:04:07.861Z,29.21
2022-08-01T14:06:35.938Z,29.26
2022-08-01T14:09:04.223Z,29.24
2022-08-01T14:11:45.838Z,29.25
2022-08-01T14:14:13.889Z,29.21
2022-08-01T14:16:40.732Z,29.21
2022-08-01T14:19:07.548Z,29.32
2022-08-01T14:21:34.371Z,29.54
2022-08-01T14:24:01.268Z,29.52
2022-08-01T14:26:28.612Z,29.67
2022-08-01T14:28:55.359Z,29.69
2022-08-01T14:31:22.028Z,29.61
2022-08-01T14:33:48.790Z,29.36
2022-08-01T14:36:30.394Z,29.32
2022-08-01T14:39:00.310Z,29.47
2022-08-01T14:41:31.130Z,29.62
2022-08-01T14:43:58.484Z,29.68
2022-08-01T14:46:25.284Z,29.58
2022-08-01T14:48:52.930Z,29.58
2022-08-01T14:51:19.656Z,29.58
2022-08-01T14:53:46.502Z,29.65
2022-08-01T14:56:13.975Z,29.85
2022-08-01T14:58:40.707Z,30.22
2022-08-01T15:01:07.474Z,30.36
2022-08-01T15:03:34.310Z,29.73
2022-08-01T15:06:01.374Z,29.60
2022-08-01T15:08:28.460Z,29.49
2022-08-01T15:10:55.234Z,29.57
2022-08-01T15:13:21.942Z,29.62
2022-08-01T15:15:48.947Z,29.59
2022-08-01T15:18:15.963Z,29.57
2022-08-01T15:20:43.052Z,29.62
2022-08-01T15:23:10.314Z,29.85
2022-08-01T15:25:40.843Z,30.03
2022-08-01T15:28:10.589Z,30.14
2022-08-01T15:30:37.922Z,29.68
2022-08-01T15:33:04.747Z,29.49
2022-08-01T15:35:31.508Z,29.49
2022-08-01T15:37:58.368Z,29.42
2022-08-01T15:40:25.341Z,29.19
2022-08-01T15:42:53.184Z,29.17
2022-08-01T15:45:45.970Z,29.20
2022-08-01T15:48:08.864Z,29.08
2022-08-01T15:50:38.556Z,29.02
2022-08-01T15:53:05.772Z,28.88
2022-08-01T15:55:32.612Z,28.84
2022-08-01T15:57:59.289Z,28.85
2022-08-01T16:00:32.662Z,28.78
2022-08-01T16:03:00.520Z,28.95
2022-08-01T16:05:27.327Z,28.80
2022-08-01T16:07:59.442Z,28.72
2022-08-01T16:10:29.207Z,28.76
2022-08-01T16:12:55.988Z,28.75
2022-08-01T16:15:23.147Z,28.69
2022-08-01T16:18:03.504Z,28.69
2022-08-01T16:20:30.248Z,28.63
2022-08-01T16:22:56.908Z,28.68
2022-08-01T16:25:23.709Z,28.70
2022-08-01T16:27:50.453Z,28.71
2022-08-01T16:30:17.216Z,28.65
2022-08-01T16:32:46.936Z,28.56
2022-08-01T16:35:22.670Z,28.50
2022-08-01T16:37:51.235Z,28.52
2022-08-01T16:40:18.200Z,28.65
2022-08-01T16:42:45.616Z,28.54
2022-08-01T16:45:14.363Z,28.61
2022-08-01T16:47:42.100Z,28.51
2022-08-01T16:50:11.810Z,28.42
2022-08-01T16:52:41.639Z,28.30
2022-08-01T16:55:10.087Z,28.31
2022-08-01T16:57:38.519Z,28.18
2022-08-01T17:00:21.366Z,28.28
2022-08-01T17:02:49.538Z,28.13
2022-08-01T17:05:16.599Z,28.25
2022-08-01T17:07:43.322Z,28.28
2022-08-01T17:10:10.310Z,28.15
2022-08-01T17:12:39.354Z,28.16
2022-08-01T17:15:09.874Z,28.19
2022-08-01T17:17:36.653Z,28.17
2022-08-01T17:20:04.109Z,28.21
2022-08-01T17:22:30.825Z,28.32
2022-08-01T17:24:57.586Z,28.17
2022-08-01T17:27:24.275Z,28.18
2022-08-01T17:29:51.072Z,28.07
2022-08-01T17:32:17.973Z,27.93
2022-08-01T17:34:44.696Z,28.05
2022-08-01T17:37:11.661Z,28.07
2022-08-01T17:39:39.907Z,28.13
2022-08-01T17:42:09.103Z,28.08
2022-08-01T17:44:35.945Z,28.17
2022-08-01T17:47:05.235Z,28.08
2022-08-01T17:49:54.315Z,27.93
2022-08-01T17:52:19.156Z,27.91
2022-08-01T17:54:45.884Z,27.83
2022-08-01T17:57:13.735Z,27.87
2022-08-01T17:59:40.965Z,27.80
2022-08-01T18:02:07.703Z,27.69
2022-08-01T18:04:35.855Z,27.70
2022-08-01T18:07:11.544Z,27.66
2022-08-01T18:09:42.393Z,27.64
2022-08-01T18:12:13.437Z,27.48
2022-08-01T18:14:41.281Z,27.74
2022-08-01T18:17:11.422Z,27.50
2022-08-01T18:19:39.393Z,27.50
2022-08-01T18:22:14.484Z,27.42
2022-08-01T18:24:53.887Z,27.47
2022-08-01T18:27:20.620Z,27.43
2022-08-01T18:29:48.720Z,27.41
2022-08-01T18:32:15.822Z,27.44
2022-08-01T18:34:42.791Z,27.38
2022-08-01T18:37:12.196Z,27.51
2022-08-01T18:39:41.431Z,27.58
2022-08-01T18:42:10.648Z,27.45
2022-08-01T18:44:37.631Z,27.40
2022-08-01T18:47:04.966Z,27.39
2022-08-01T18:49:32.159Z,27.35
2022-08-01T18:51:59.392Z,27.39
2022-08-01T18:54:27.276Z,27.41
2022-08-01T18:56:54.068Z,27.35
2022-08-01T18:59:21.802Z,27.38
2022-08-01T19:01:49.339Z,27.24
2022-08-01T19:04:16.628Z,27.26
2022-08-01T19:06:43.440Z,27.23
2022-08-01T19:09:14.342Z,27.28
2022-08-01T19:11:47.455Z,27.22
2022-08-01T19:14:14.333Z,27.16
2022-08-01T19:16:41.210Z,27.16
2022-08-01T19:19:09.706Z,27.21
2022-08-01T19:21:44.317Z,27.11
2022-08-01T19:24:23.091Z,27.11
2022-08-01T19:26:54.045Z,27.26
2022-08-01T19:29:23.250Z,27.24
2022-08-01T19:31:51.136Z,27.08
2022-08-01T19:34:24.785Z,27.13
2022-08-01T19:36:58.754Z,27.09
2022-08-01T19:39:29.819Z,27.01
2022-08-01T19:41:59.302Z,27.05
2022-08-01T19:44:28.710Z,27.09
2022-08-01T19:46:55.841Z,27.16
2022-08-01T19:49:23.829Z,27.27
2022-08-01T19:52:01.220Z,27.15
2022-08-01T19:54:34.525Z,27.18
2022-08-01T19:57:03.453Z,27.02
2022-08-01T19:59:33.104Z,26.98
2022-08-01T20:02:00.724Z,26.98
2022-08-01T20:04:28.251Z,26.97
2022-08-01T20:06:56.581Z,26.99
2022-08-01T20:09:23.362Z,26.88
2022-08-01T20:11:54.447Z,26.83
2022-08-01T20:14:24.101Z,26.83
2022-08-01T20:16:53.084Z,26.81
2022-08-01T20:19:21.535Z,26.64
2022-08-01T20:22:03.988Z,26.42
2022-08-01T20:24:39.519Z,26.43
2022-08-01T20:27:09.419Z,26.61
2022-08-01T20:29:37.289Z,26.47
2022-08-01T20:32:05.358Z,26.36
2022-08-01T20:34:39.120Z,26.30
2022-08-01T20:37:12.478Z,26.27
2022-08-01T20:39:44.313Z,26.35
2022-08-01T20:42:13.197Z,26.21
2022-08-01T20:44:41.415Z,26.21
2022-08-01T20:47:09.119Z,26.20
2022-08-01T20:49:37.277Z,26.34
2022-08-01T20:52:11.918Z,26.37
2022-08-01T20:54:41.050Z,26.26
2022-08-01T20:57:26.858Z,26.06
2022-08-01T21:00:02.392Z,26.08
2022-08-01T21:02:47.845Z,26.00
2022-08-01T21:05:29.976Z,26.01
2022-08-01T21:08:05.652Z,26.02
2022-08-01T21:10:33.340Z,25.80
2022-08-01T21:13:08.665Z,25.91
2022-08-01T21:16:22.058Z,25.86
2022-08-01T21:18:58.260Z,25.96
2022-08-01T21:21:35.644Z,25.99
2022-08-01T21:24:10.341Z,25.92
2022-08-01T21:26:37.191Z,25.98
2022-08-01T21:29:07.424Z,26.02
2022-08-01T21:31:38.715Z,25.73
2022-08-01T21:34:08.148Z,25.81
2022-08-01T21:36:36.479Z,25.86
2022-08-01T21:39:05.825Z,25.80
2022-08-01T21:41:56.001Z,25.74
2022-08-01T21:44:20.042Z,25.66
2022-08-01T21:46:48.184Z,25.57
2022-08-01T21:49:15.257Z,25.64
2022-08-01T21:51:51.858Z,25.81
2022-08-01T21:54:37.540Z,25.81
2022-08-01T21:57:12.754Z,25.61
2022-08-01T21:59:59.633Z,25.83
2022-08-01T22:02:40.903Z,25.77
2022-08-01T22:05:13.804Z,25.59
2022-08-01T22:07:56.679Z,25.46
2022-08-01T22:10:24.795Z,25.59
2022-08-01T22:12:52.961Z,25.67
2022-08-01T22:15:25.110Z,25.68
2022-08-01T22:18:10.806Z,25.57
2022-08-01T22:20:37.887Z,25.36
2022-08-01T22:23:06.461Z,25.43
2022-08-01T22:25:33.518Z,25.33
2022-08-01T22:28:06.569Z,25.37
2022-08-01T22:30:43.771Z,25.35
2022-08-01T22:33:16.026Z,25.32
2022-08-01T22:35:48.721Z,25.34
2022-08-01T22:38:18.035Z,25.36
2022-08-01T22:40:49.059Z,25.33
2022-08-01T22:43:30.567Z,25.15
2022-08-01T22:46:22.605Z,25.16
2022-08-01T22:48:58.369Z,25.26
2022-08-01T22:51:54.946Z,25.19
2022-08-01T22:54:30.031Z,25.29
2022-08-01T22:56:59.896Z,25.31
2022-08-01T22:59:55.748Z,25.34
2022-08-01T23:02:22.534Z,25.40
2022-08-01T23:04:50.286Z,25.38
2022-08-01T23:07:23.444Z,25.40
2022-08-01T23:09:53.873Z,25.45
2022-08-01T23:12:27.264Z,25.44
2022-08-01T23:14:56.417Z,25.46
2022-08-01T23:17:29.822Z,25.43
2022-08-01T23:20:02.283Z,25.27
2022-08-01T23:22:32.507Z,25.13
2022-08-01T23:25:03.917Z,25.08
2022-08-01T23:27:51.776Z,25.21
2022-08-01T23:30:27.227Z,25.33
2022-08-01T23:32:55.226Z,25.25
2022-08-01T23:35:22.436Z,25.17
2022-08-01T23:37:51.011Z,25.07
2022-08-01T23:40:18.556Z,25.17
2022-08-01T23:42:45.605Z,25.16
2022-08-01T23:45:14.880Z,25.11
2022-08-01T23:47:41.676Z,25.06
2022-08-01T23:50:08.929Z,24.98
2022-08-01T23:52:48.149Z,24.95
2022-08-01T23:55:15.783Z,24.87
2022-08-01T23:57:42.980Z,24.85
